sensor_id;sensor_type;location;lat;lon;timestamp;P1;durP1;ratioP1;P2;durP2;ratioP2
5521;SDS011;2783;48.730;8.006;2024-02-16T00:00:00;0.60;;;0.60;;
5521;SDS011;2783;48.730;8.006;2024-02-16T00:02:26;0.55;;;0.55;;
5521;SDS011;2783;48.730;8.006;2024-02-16T00:04:52;0.60;;;0.60;;
5521;SDS011;2783;48.730;8.006;2024-02-16T00:07:17;0.60;;;0.60;;
5521;SDS011;2783;48.730;8.006;2024-02-16T00:09:42;0.60;;;0.60;;
5521;SDS011;2783;48.730;8.006;2024-02-16T00:12:08;0.60;;;0.60;;
5521;SDS011;2783;48.730;8.006;2024-02-16T00:14:33;0.60;;;0.60;;
5521;SDS011;2783;48.730;8.006;2024-02-16T00:16:59;0.60;;;0.60;;
5521;SDS011;2783;48.730;8.006;2024-02-16T00:19:24;0.60;;;0.60;;
5521;SDS011;2783;48.730;8.006;2024-02-16T00:21:50;0.60;;;0.60;;
5521;SDS011;2783;48.730;8.006;2024-02-16T00:24:16;0.60;;;0.60;;
5521;SDS011;2783;48.730;8.006;2024-02-16T00:26:41;0.60;;;0.60;;
5521;SDS011;2783;48.730;8.006;2024-02-16T00:29:08;0.50;;;0.50;;
5521;SDS011;2783;48.730;8.006;2024-02-16T00:31:33;0.60;;;0.60;;
5521;SDS011;2783;48.730;8.006;2024-02-16T00:33:59;0.47;;;0.47;;
5521;SDS011;2783;48.730;8.006;2024-02-16T00:36:26;0.60;;;0.60;;
5521;SDS011;2783;48.730;8.006;2024-02-16T00:38:52;0.60;;;0.60;;
5521;SDS011;2783;48.730;8.006;2024-02-16T00:41:18;0.60;;;0.60;;
5521;SDS011;2783;48.730;8.006;2024-02-16T00:43:45;0.60;;;0.60;;
5521;SDS011;2783;48.730;8.006;2024-02-16T00:46:10;0.40;;;0.40;;
5521;SDS011;2783;48.730;8.006;2024-02-16T00:48:36;0.50;;;0.50;;
5521;SDS011;2783;48.730;8.006;2024-02-16T00:51:01;0.57;;;0.57;;
5521;SDS011;2783;48.730;8.006;2024-02-16T00:53:27;0.63;;;0.63;;
5521;SDS011;2783;48.730;8.006;2024-02-16T00:55:52;0.60;;;0.60;;
5521;SDS011;2783;48.730;8.006;2024-02-16T00:58:18;0.55;;;0.55;;
5521;SDS011;2783;48.730;8.006;2024-02-16T01:00:44;0.60;;;0.60;;
5521;SDS011;2783;48.730;8.006;2024-02-16T01:03:10;0.50;;;0.50;;
5521;SDS011;2783;48.730;8.006;2024-02-16T01:05:37;0.60;;;0.60;;
5521;SDS011;2783;48.730;8.006;2024-02-16T01:08:03;0.60;;;0.60;;
5521;SDS011;2783;48.730;8.006;2024-02-16T01:10:28;0.60;;;0.60;;
5521;SDS011;2783;48.730;8.006;2024-02-16T01:12:54;0.60;;;0.60;;
5521;SDS011;2783;48.730;8.006;2024-02-16T01:15:21;0.60;;;0.60;;
5521;SDS011;2783;48.730;8.006;2024-02-16T01:17:46;0.60;;;0.60;;
5521;SDS011;2783;48.730;8.006;2024-02-16T01:20:11;0.50;;;0.50;;
5521;SDS011;2783;48.730;8.006;2024-02-16T01:22:38;0.55;;;0.55;;
5521;SDS011;2783;48.730;8.006;2024-02-16T01:25:04;0.50;;;0.50;;
5521;SDS011;2783;48.730;8.006;2024-02-16T01:27:29;0.60;;;0.60;;
5521;SDS011;2783;48.730;8.006;2024-02-16T01:29:55;0.60;;;0.60;;
5521;SDS011;2783;48.730;8.006;2024-02-16T01:32:20;0.60;;;0.60;;
5521;SDS011;2783;48.730;8.006;2024-02-16T01:34:46;0.60;;;0.60;;
5521;SDS011;2783;48.730;8.006;2024-02-16T01:37:14;0.60;;;0.60;;
5521;SDS011;2783;48.730;8.006;2024-02-16T01:39:40;0.70;;;0.70;;
5521;SDS011;2783;48.730;8.006;2024-02-16T01:42:05;0.60;;;0.60;;
5521;SDS011;2783;48.730;8.006;2024-02-16T01:44:31;0.60;;;0.60;;
5521;SDS011;2783;48.730;8.006;2024-02-16T01:46:56;0.60;;;0.60;;
5521;SDS011;2783;48.730;8.006;2024-02-16T01:49:22;0.68;;;0.68;;
5521;SDS011;2783;48.730;8.006;2024-02-16T01:51:47;0.60;;;0.60;;
5521;SDS011;2783;48.730;8.006;2024-02-16T01:54:14;0.60;;;0.60;;
5521;SDS011;2783;48.730;8.006;2024-02-16T01:56:42;0.70;;;0.70;;
5521;SDS011;2783;48.730;8.006;2024-02-16T01:59:09;0.60;;;0.60;;
5521;SDS011;2783;48.730;8.006;2024-02-16T02:01:34;0.60;;;0.60;;
5521;SDS011;2783;48.730;8.006;2024-02-16T02:04:00;0.60;;;0.60;;
5521;SDS011;2783;48.730;8.006;2024-02-16T02:06:26;0.60;;;0.60;;
5521;SDS011;2783;48.730;8.006;2024-02-16T02:08:52;0.70;;;0.70;;
5521;SDS011;2783;48.730;8.006;2024-02-16T02:11:17;0.70;;;0.70;;
5521;SDS011;2783;48.730;8.006;2024-02-16T02:13:43;0.60;;;0.60;;
5521;SDS011;2783;48.730;8.006;2024-02-16T02:16:09;0.60;;;0.60;;
5521;SDS011;2783;48.730;8.006;2024-02-16T02:18:36;0.70;;;0.70;;
5521;SDS011;2783;48.730;8.006;2024-02-16T02:21:01;0.60;;;0.60;;
5521;SDS011;2783;48.730;8.006;2024-02-16T02:23:26;0.70;;;0.70;;
5521;SDS011;2783;48.730;8.006;2024-02-16T02:25:52;0.60;;;0.60;;
5521;SDS011;2783;48.730;8.006;2024-02-16T02:28:18;0.65;;;0.65;;
5521;SDS011;2783;48.730;8.006;2024-02-16T02:30:44;0.70;;;0.70;;
5521;SDS011;2783;48.730;8.006;2024-02-16T02:33:10;0.70;;;0.70;;
5521;SDS011;2783;48.730;8.006;2024-02-16T02:35:37;0.60;;;0.60;;
5521;SDS011;2783;48.730;8.006;2024-02-16T02:38:03;0.60;;;0.60;;
5521;SDS011;2783;48.730;8.006;2024-02-16T02:40:29;0.70;;;0.70;;
5521;SDS011;2783;48.730;8.006;2024-02-16T02:42:55;0.60;;;0.60;;
5521;SDS011;2783;48.730;8.006;2024-02-16T02:45:20;0.70;;;0.70;;
5521;SDS011;2783;48.730;8.006;2024-02-16T02:47:46;0.70;;;0.70;;
5521;SDS011;2783;48.730;8.006;2024-02-16T02:50:11;0.60;;;0.60;;
5521;SDS011;2783;48.730;8.006;2024-02-16T02:52:37;0.70;;;0.70;;
5521;SDS011;2783;48.730;8.006;2024-02-16T02:55:02;0.70;;;0.70;;
5521;SDS011;2783;48.730;8.006;2024-02-16T02:57:28;0.60;;;0.60;;
5521;SDS011;2783;48.730;8.006;2024-02-16T03:00:00;0.70;;;0.70;;
5521;SDS011;2783;48.730;8.006;2024-02-16T03:02:38;0.60;;;0.60;;
5521;SDS011;2783;48.730;8.006;2024-02-16T03:05:04;0.60;;;0.60;;
5521;SDS011;2783;48.730;8.006;2024-02-16T03:07:32;0.60;;;0.60;;
5521;SDS011;2783;48.730;8.006;2024-02-16T03:09:58;0.70;;;0.70;;
5521;SDS011;2783;48.730;8.006;2024-02-16T03:12:24;0.60;;;0.60;;
5521;SDS011;2783;48.730;8.006;2024-02-16T03:14:49;0.70;;;0.70;;
5521;SDS011;2783;48.730;8.006;2024-02-16T03:17:15;0.60;;;0.60;;
5521;SDS011;2783;48.730;8.006;2024-02-16T03:19:40;0.60;;;0.60;;
5521;SDS011;2783;48.730;8.006;2024-02-16T03:22:05;0.60;;;0.60;;
5521;SDS011;2783;48.730;8.006;2024-02-16T03:24:31;0.70;;;0.70;;
5521;SDS011;2783;48.730;8.006;2024-02-16T03:26:56;0.70;;;0.70;;
5521;SDS011;2783;48.730;8.006;2024-02-16T03:29:22;0.70;;;0.70;;
5521;SDS011;2783;48.730;8.006;2024-02-16T03:31:47;0.70;;;0.70;;
5521;SDS011;2783;48.730;8.006;2024-02-16T03:34:12;0.68;;;0.68;;
5521;SDS011;2783;48.730;8.006;2024-02-16T03:36:38;0.70;;;0.70;;
5521;SDS011;2783;48.730;8.006;2024-02-16T03:39:03;0.70;;;0.70;;
5521;SDS011;2783;48.730;8.006;2024-02-16T03:41:29;0.70;;;0.70;;
5521;SDS011;2783;48.730;8.006;2024-02-16T03:43:54;0.70;;;0.70;;
5521;SDS011;2783;48.730;8.006;2024-02-16T03:46:19;0.70;;;0.70;;
5521;SDS011;2783;48.730;8.006;2024-02-16T03:48:45;0.70;;;0.70;;
5521;SDS011;2783;48.730;8.006;2024-02-16T03:51:10;0.70;;;0.70;;
5521;SDS011;2783;48.730;8.006;2024-02-16T03:53:36;0.77;;;0.77;;
5521;SDS011;2783;48.730;8.006;2024-02-16T03:56:01;0.70;;;0.70;;
5521;SDS011;2783;48.730;8.006;2024-02-16T03:58:27;0.70;;;0.70;;
5521;SDS011;2783;48.730;8.006;2024-02-16T04:00:53;0.70;;;0.70;;
5521;SDS011;2783;48.730;8.006;2024-02-16T04:03:18;0.80;;;0.80;;
5521;SDS011;2783;48.730;8.006;2024-02-16T04:05:44;0.70;;;0.70;;
5521;SDS011;2783;48.730;8.006;2024-02-16T04:08:10;0.70;;;0.70;;
5521;SDS011;2783;48.730;8.006;2024-02-16T04:10:35;0.70;;;0.70;;
5521;SDS011;2783;48.730;8.006;2024-02-16T04:13:01;0.70;;;0.70;;
5521;SDS011;2783;48.730;8.006;2024-02-16T04:15:28;0.75;;;0.75;;
5521;SDS011;2783;48.730;8.006;2024-02-16T04:17:54;0.70;;;0.70;;
5521;SDS011;2783;48.730;8.006;2024-02-16T04:20:19;0.70;;;0.70;;
5521;SDS011;2783;48.730;8.006;2024-02-16T04:22:45;0.70;;;0.70;;
5521;SDS011;2783;48.730;8.006;2024-02-16T04:25:11;0.70;;;0.70;;
5521;SDS011;2783;48.730;8.006;2024-02-16T04:27:36;0.70;;;0.70;;
5521;SDS011;2783;48.730;8.006;2024-02-16T04:30:02;0.73;;;0.73;;
5521;SDS011;2783;48.730;8.006;2024-02-16T04:32:29;0.70;;;0.70;;
5521;SDS011;2783;48.730;8.006;2024-02-16T04:34:54;0.70;;;0.70;;
5521;SDS011;2783;48.730;8.006;2024-02-16T04:37:22;0.70;;;0.70;;
5521;SDS011;2783;48.730;8.006;2024-02-16T04:39:48;0.60;;;0.60;;
5521;SDS011;2783;48.730;8.006;2024-02-16T04:42:15;0.70;;;0.70;;
5521;SDS011;2783;48.730;8.006;2024-02-16T04:44:41;0.65;;;0.65;;
5521;SDS011;2783;48.730;8.006;2024-02-16T04:47:06;0.70;;;0.70;;
5521;SDS011;2783;48.730;8.006;2024-02-16T04:49:32;0.70;;;0.70;;
5521;SDS011;2783;48.730;8.006;2024-02-16T04:51:58;0.70;;;0.70;;
5521;SDS011;2783;48.730;8.006;2024-02-16T04:54:23;0.60;;;0.60;;
5521;SDS011;2783;48.730;8.006;2024-02-16T04:56:49;0.70;;;0.70;;
5521;SDS011;2783;48.730;8.006;2024-02-16T04:59:15;0.60;;;0.60;;
5521;SDS011;2783;48.730;8.006;2024-02-16T05:01:42;0.70;;;0.70;;
5521;SDS011;2783;48.730;8.006;2024-02-16T05:04:09;0.70;;;0.70;;
5521;SDS011;2783;48.730;8.006;2024-02-16T05:06:41;0.70;;;0.70;;
5521;SDS011;2783;48.730;8.006;2024-02-16T05:09:11;0.60;;;0.60;;
5521;SDS011;2783;48.730;8.006;2024-02-16T05:11:37;0.60;;;0.60;;
5521;SDS011;2783;48.730;8.006;2024-02-16T05:14:02;0.60;;;0.60;;
5521;SDS011;2783;48.730;8.006;2024-02-16T05:16:28;0.60;;;0.60;;
5521;SDS011;2783;48.730;8.006;2024-02-16T05:18:55;0.60;;;0.60;;
5521;SDS011;2783;48.730;8.006;2024-02-16T05:21:21;0.70;;;0.70;;
5521;SDS011;2783;48.730;8.006;2024-02-16T05:23:47;0.70;;;0.70;;
5521;SDS011;2783;48.730;8.006;2024-02-16T05:26:13;0.60;;;0.60;;
5521;SDS011;2783;48.730;8.006;2024-02-16T05:28:38;0.60;;;0.60;;
5521;SDS011;2783;48.730;8.006;2024-02-16T05:31:13;0.60;;;0.60;;
5521;SDS011;2783;48.730;8.006;2024-02-16T05:33:47;0.60;;;0.60;;
5521;SDS011;2783;48.730;8.006;2024-02-16T05:36:22;0.60;;;0.60;;
5521;SDS011;2783;48.730;8.006;2024-02-16T05:38:52;0.60;;;0.60;;
5521;SDS011;2783;48.730;8.006;2024-02-16T05:41:20;0.60;;;0.60;;
5521;SDS011;2783;48.730;8.006;2024-02-16T05:43:46;0.70;;;0.70;;
5521;SDS011;2783;48.730;8.006;2024-02-16T05:46:15;0.70;;;0.70;;
5521;SDS011;2783;48.730;8.006;2024-02-16T05:48:41;0.60;;;0.60;;
5521;SDS011;2783;48.730;8.006;2024-02-16T05:51:07;0.60;;;0.60;;
5521;SDS011;2783;48.730;8.006;2024-02-16T05:53:33;0.65;;;0.65;;
5521;SDS011;2783;48.730;8.006;2024-02-16T05:55:59;0.63;;;0.63;;
5521;SDS011;2783;48.730;8.006;2024-02-16T05:58:25;0.77;;;0.77;;
5521;SDS011;2783;48.730;8.006;2024-02-16T06:00:51;0.70;;;0.70;;
5521;SDS011;2783;48.730;8.006;2024-02-16T06:03:16;0.63;;;0.63;;
5521;SDS011;2783;48.730;8.006;2024-02-16T06:05:42;0.60;;;0.60;;
5521;SDS011;2783;48.730;8.006;2024-02-16T06:08:10;0.60;;;0.60;;
5521;SDS011;2783;48.730;8.006;2024-02-16T06:10:36;0.60;;;0.60;;
5521;SDS011;2783;48.730;8.006;2024-02-16T06:13:01;0.70;;;0.70;;
5521;SDS011;2783;48.730;8.006;2024-02-16T06:15:27;0.73;;;0.73;;
5521;SDS011;2783;48.730;8.006;2024-02-16T06:17:52;0.70;;;0.70;;
5521;SDS011;2783;48.730;8.006;2024-02-16T06:20:18;0.70;;;0.70;;
5521;SDS011;2783;48.730;8.006;2024-02-16T06:22:44;0.60;;;0.60;;
5521;SDS011;2783;48.730;8.006;2024-02-16T06:25:09;0.70;;;0.70;;
5521;SDS011;2783;48.730;8.006;2024-02-16T06:27:35;0.70;;;0.70;;
5521;SDS011;2783;48.730;8.006;2024-02-16T06:30:01;0.70;;;0.70;;
5521;SDS011;2783;48.730;8.006;2024-02-16T06:32:29;0.70;;;0.70;;
5521;SDS011;2783;48.730;8.006;2024-02-16T06:34:55;0.60;;;0.60;;
5521;SDS011;2783;48.730;8.006;2024-02-16T06:37:20;0.68;;;0.68;;
5521;SDS011;2783;48.730;8.006;2024-02-16T06:39:46;0.60;;;0.60;;
5521;SDS011;2783;48.730;8.006;2024-02-16T06:42:11;0.70;;;0.70;;
5521;SDS011;2783;48.730;8.006;2024-02-16T06:44:37;0.70;;;0.70;;
5521;SDS011;2783;48.730;8.006;2024-02-16T06:47:04;0.60;;;0.60;;
5521;SDS011;2783;48.730;8.006;2024-02-16T06:49:30;0.70;;;0.70;;
5521;SDS011;2783;48.730;8.006;2024-02-16T06:51:56;0.70;;;0.70;;
5521;SDS011;2783;48.730;8.006;2024-02-16T06:54:21;0.60;;;0.60;;
5521;SDS011;2783;48.730;8.006;2024-02-16T06:56:47;0.60;;;0.60;;
5521;SDS011;2783;48.730;8.006;2024-02-16T06:59:12;0.65;;;0.65;;
5521;SDS011;2783;48.730;8.006;2024-02-16T07:01:38;0.60;;;0.60;;
5521;SDS011;2783;48.730;8.006;2024-02-16T07:04:03;0.60;;;0.60;;
5521;SDS011;2783;48.730;8.006;2024-02-16T07:06:29;0.70;;;0.70;;
5521;SDS011;2783;48.730;8.006;2024-02-16T07:08:55;0.70;;;0.70;;
5521;SDS011;2783;48.730;8.006;2024-02-16T07:11:20;0.63;;;0.63;;
5521;SDS011;2783;48.730;8.006;2024-02-16T07:13:46;0.70;;;0.70;;
5521;SDS011;2783;48.730;8.006;2024-02-16T07:16:11;0.70;;;0.70;;
5521;SDS011;2783;48.730;8.006;2024-02-16T07:18:37;0.70;;;0.70;;
5521;SDS011;2783;48.730;8.006;2024-02-16T07:21:03;0.70;;;0.70;;
5521;SDS011;2783;48.730;8.006;2024-02-16T07:23:29;0.70;;;0.70;;
5521;SDS011;2783;48.730;8.006;2024-02-16T07:25:56;0.70;;;0.70;;
5521;SDS011;2783;48.730;8.006;2024-02-16T07:28:23;0.70;;;0.70;;
5521;SDS011;2783;48.730;8.006;2024-02-16T07:30:49;0.70;;;0.70;;
5521;SDS011;2783;48.730;8.006;2024-02-16T07:33:15;0.60;;;0.60;;
5521;SDS011;2783;48.730;8.006;2024-02-16T07:35:41;0.60;;;0.60;;
5521;SDS011;2783;48.730;8.006;2024-02-16T07:38:06;0.60;;;0.60;;
5521;SDS011;2783;48.730;8.006;2024-02-16T07:40:32;0.70;;;0.70;;
5521;SDS011;2783;48.730;8.006;2024-02-16T07:42:57;0.60;;;0.60;;
5521;SDS011;2783;48.730;8.006;2024-02-16T07:45:23;0.60;;;0.60;;
5521;SDS011;2783;48.730;8.006;2024-02-16T07:47:48;0.50;;;0.50;;
5521;SDS011;2783;48.730;8.006;2024-02-16T07:50:18;0.60;;;0.60;;
5521;SDS011;2783;48.730;8.006;2024-02-16T07:52:45;0.60;;;0.60;;
5521;SDS011;2783;48.730;8.006;2024-02-16T07:55:10;0.60;;;0.60;;
5521;SDS011;2783;48.730;8.006;2024-02-16T07:57:36;0.60;;;0.60;;
5521;SDS011;2783;48.730;8.006;2024-02-16T08:00:01;0.60;;;0.60;;
5521;SDS011;2783;48.730;8.006;2024-02-16T08:02:28;0.60;;;0.60;;
5521;SDS011;2783;48.730;8.006;2024-02-16T08:04:54;0.60;;;0.60;;
5521;SDS011;2783;48.730;8.006;2024-02-16T08:07:19;0.60;;;0.60;;
5521;SDS011;2783;48.730;8.006;2024-02-16T08:09:45;0.60;;;0.60;;
5521;SDS011;2783;48.730;8.006;2024-02-16T08:12:11;0.60;;;0.60;;
5521;SDS011;2783;48.730;8.006;2024-02-16T08:14:38;0.60;;;0.60;;
5521;SDS011;2783;48.730;8.006;2024-02-16T08:17:05;0.50;;;0.50;;
5521;SDS011;2783;48.730;8.006;2024-02-16T08:19:34;0.50;;;0.50;;
5521;SDS011;2783;48.730;8.006;2024-02-16T08:22:01;0.60;;;0.60;;
5521;SDS011;2783;48.730;8.006;2024-02-16T08:24:28;0.60;;;0.60;;
5521;SDS011;2783;48.730;8.006;2024-02-16T08:26:53;0.52;;;0.52;;
5521;SDS011;2783;48.730;8.006;2024-02-16T08:29:19;0.50;;;0.50;;
5521;SDS011;2783;48.730;8.006;2024-02-16T08:31:47;0.47;;;0.47;;
5521;SDS011;2783;48.730;8.006;2024-02-16T08:34:14;0.60;;;0.60;;
5521;SDS011;2783;48.730;8.006;2024-02-16T08:36:43;0.50;;;0.50;;
5521;SDS011;2783;48.730;8.006;2024-02-16T08:39:17;0.50;;;0.50;;
5521;SDS011;2783;48.730;8.006;2024-02-16T08:41:45;0.52;;;0.52;;
5521;SDS011;2783;48.730;8.006;2024-02-16T08:44:13;0.50;;;0.50;;
5521;SDS011;2783;48.730;8.006;2024-02-16T08:46:39;0.50;;;0.50;;
5521;SDS011;2783;48.730;8.006;2024-02-16T08:49:07;0.50;;;0.50;;
5521;SDS011;2783;48.730;8.006;2024-02-16T08:51:34;0.60;;;0.60;;
5521;SDS011;2783;48.730;8.006;2024-02-16T08:54:00;0.40;;;0.40;;
5521;SDS011;2783;48.730;8.006;2024-02-16T08:56:29;0.50;;;0.50;;
5521;SDS011;2783;48.730;8.006;2024-02-16T08:58:55;0.50;;;0.50;;
5521;SDS011;2783;48.730;8.006;2024-02-16T09:01:33;0.50;;;0.50;;
5521;SDS011;2783;48.730;8.006;2024-02-16T09:03:59;0.50;;;0.50;;
5521;SDS011;2783;48.730;8.006;2024-02-16T09:06:25;0.50;;;0.50;;
5521;SDS011;2783;48.730;8.006;2024-02-16T09:08:51;0.47;;;0.47;;
5521;SDS011;2783;48.730;8.006;2024-02-16T09:11:17;0.50;;;0.50;;
5521;SDS011;2783;48.730;8.006;2024-02-16T09:13:42;0.47;;;0.47;;
5521;SDS011;2783;48.730;8.006;2024-02-16T09:16:08;0.50;;;0.50;;
5521;SDS011;2783;48.730;8.006;2024-02-16T09:18:34;0.40;;;0.40;;
5521;SDS011;2783;48.730;8.006;2024-02-16T09:20:59;0.50;;;0.50;;
5521;SDS011;2783;48.730;8.006;2024-02-16T09:23:25;0.45;;;0.45;;
5521;SDS011;2783;48.730;8.006;2024-02-16T09:25:51;0.40;;;0.40;;
5521;SDS011;2783;48.730;8.006;2024-02-16T09:28:17;0.40;;;0.40;;
5521;SDS011;2783;48.730;8.006;2024-02-16T09:30:45;0.47;;;0.47;;
5521;SDS011;2783;48.730;8.006;2024-02-16T09:33:11;0.50;;;0.50;;
5521;SDS011;2783;48.730;8.006;2024-02-16T09:35:37;0.40;;;0.40;;
5521;SDS011;2783;48.730;8.006;2024-02-16T09:38:02;0.40;;;0.40;;
5521;SDS011;2783;48.730;8.006;2024-02-16T09:40:28;0.40;;;0.40;;
5521;SDS011;2783;48.730;8.006;2024-02-16T09:42:53;0.30;;;0.30;;
5521;SDS011;2783;48.730;8.006;2024-02-16T09:45:19;0.30;;;0.30;;
5521;SDS011;2783;48.730;8.006;2024-02-16T09:47:45;0.40;;;0.40;;
5521;SDS011;2783;48.730;8.006;2024-02-16T09:50:14;0.30;;;0.30;;
5521;SDS011;2783;48.730;8.006;2024-02-16T09:52:40;0.30;;;0.30;;
5521;SDS011;2783;48.730;8.006;2024-02-16T09:55:15;0.30;;;0.30;;
5521;SDS011;2783;48.730;8.006;2024-02-16T09:57:41;0.20;;;0.20;;
5521;SDS011;2783;48.730;8.006;2024-02-16T10:00:08;0.30;;;0.30;;
5521;SDS011;2783;48.730;8.006;2024-02-16T10:02:41;0.20;;;0.20;;
5521;SDS011;2783;48.730;8.006;2024-02-16T10:05:10;0.30;;;0.30;;
5521;SDS011;2783;48.730;8.006;2024-02-16T10:07:42;0.28;;;0.28;;
5521;SDS011;2783;48.730;8.006;2024-02-16T10:10:25;0.30;;;0.30;;
5521;SDS011;2783;48.730;8.006;2024-02-16T10:13:03;0.20;;;0.20;;
5521;SDS011;2783;48.730;8.006;2024-02-16T10:15:33;0.20;;;0.20;;
5521;SDS011;2783;48.730;8.006;2024-02-16T10:20:29;0.20;;;0.20;;
5521;SDS011;2783;48.730;8.006;2024-02-16T10:23:05;0.20;;;0.20;;
5521;SDS011;2783;48.730;8.006;2024-02-16T10:25:31;0.20;;;0.20;;
5521;SDS011;2783;48.730;8.006;2024-02-16T10:27:57;0.20;;;0.20;;
5521;SDS011;2783;48.730;8.006;2024-02-16T10:30:29;0.30;;;0.30;;
5521;SDS011;2783;48.730;8.006;2024-02-16T10:32:55;0.20;;;0.20;;
5521;SDS011;2783;48.730;8.006;2024-02-16T10:35:23;0.20;;;0.20;;
5521;SDS011;2783;48.730;8.006;2024-02-16T10:37:50;0.20;;;0.20;;
5521;SDS011;2783;48.730;8.006;2024-02-16T10:40:16;0.20;;;0.20;;
5521;SDS011;2783;48.730;8.006;2024-02-16T10:42:45;0.20;;;0.20;;
5521;SDS011;2783;48.730;8.006;2024-02-16T10:45:11;0.20;;;0.20;;
5521;SDS011;2783;48.730;8.006;2024-02-16T10:47:38;0.20;;;0.20;;
5521;SDS011;2783;48.730;8.006;2024-02-16T10:50:04;0.20;;;0.20;;
5521;SDS011;2783;48.730;8.006;2024-02-16T10:52:30;0.20;;;0.20;;
5521;SDS011;2783;48.730;8.006;2024-02-16T10:54:57;0.20;;;0.20;;
5521;SDS011;2783;48.730;8.006;2024-02-16T10:57:24;0.20;;;0.20;;
5521;SDS011;2783;48.730;8.006;2024-02-16T10:59:52;0.20;;;0.20;;
5521;SDS011;2783;48.730;8.006;2024-02-16T11:02:19;0.20;;;0.20;;
5521;SDS011;2783;48.730;8.006;2024-02-16T11:04:45;0.20;;;0.20;;
5521;SDS011;2783;48.730;8.006;2024-02-16T11:07:11;0.20;;;0.20;;
5521;SDS011;2783;48.730;8.006;2024-02-16T11:09:41;0.20;;;0.20;;
5521;SDS011;2783;48.730;8.006;2024-02-16T11:12:08;0.13;;;0.13;;
5521;SDS011;2783;48.730;8.006;2024-02-16T11:14:37;0.20;;;0.20;;
5521;SDS011;2783;48.730;8.006;2024-02-16T11:17:08;0.20;;;0.20;;
5521;SDS011;2783;48.730;8.006;2024-02-16T11:19:47;0.20;;;0.20;;
5521;SDS011;2783;48.730;8.006;2024-02-16T11:22:15;0.17;;;0.17;;
5521;SDS011;2783;48.730;8.006;2024-02-16T11:24:43;0.20;;;0.20;;
5521;SDS011;2783;48.730;8.006;2024-02-16T11:27:10;0.20;;;0.20;;
5521;SDS011;2783;48.730;8.006;2024-02-16T11:29:36;0.20;;;0.20;;
5521;SDS011;2783;48.730;8.006;2024-02-16T11:32:03;0.20;;;0.20;;
5521;SDS011;2783;48.730;8.006;2024-02-16T11:34:30;0.20;;;0.20;;
5521;SDS011;2783;48.730;8.006;2024-02-16T11:36:56;0.20;;;0.20;;
5521;SDS011;2783;48.730;8.006;2024-02-16T11:39:23;0.20;;;0.20;;
5521;SDS011;2783;48.730;8.006;2024-02-16T11:42:03;0.22;;;0.22;;
5521;SDS011;2783;48.730;8.006;2024-02-16T11:44:30;0.20;;;0.20;;
5521;SDS011;2783;48.730;8.006;2024-02-16T11:46:57;0.20;;;0.20;;
5521;SDS011;2783;48.730;8.006;2024-02-16T11:49:24;0.20;;;0.20;;
5521;SDS011;2783;48.730;8.006;2024-02-16T11:51:49;0.20;;;0.20;;
5521;SDS011;2783;48.730;8.006;2024-02-16T11:54:15;0.20;;;0.20;;
5521;SDS011;2783;48.730;8.006;2024-02-16T11:56:47;0.20;;;0.20;;
5521;SDS011;2783;48.730;8.006;2024-02-16T11:59:16;0.20;;;0.20;;
5521;SDS011;2783;48.730;8.006;2024-02-16T12:01:53;0.20;;;0.20;;
5521;SDS011;2783;48.730;8.006;2024-02-16T12:04:28;0.25;;;0.25;;
5521;SDS011;2783;48.730;8.006;2024-02-16T12:06:55;0.20;;;0.20;;
5521;SDS011;2783;48.730;8.006;2024-02-16T12:09:22;0.20;;;0.20;;
5521;SDS011;2783;48.730;8.006;2024-02-16T12:11:49;0.20;;;0.20;;
5521;SDS011;2783;48.730;8.006;2024-02-16T12:14:18;0.20;;;0.20;;
5521;SDS011;2783;48.730;8.006;2024-02-16T12:16:51;0.20;;;0.20;;
5521;SDS011;2783;48.730;8.006;2024-02-16T12:19:20;0.20;;;0.20;;
5521;SDS011;2783;48.730;8.006;2024-02-16T12:21:57;0.20;;;0.20;;
5521;SDS011;2783;48.730;8.006;2024-02-16T12:24:23;0.25;;;0.25;;
5521;SDS011;2783;48.730;8.006;2024-02-16T12:26:49;0.20;;;0.20;;
5521;SDS011;2783;48.730;8.006;2024-02-16T12:29:14;0.20;;;0.20;;
5521;SDS011;2783;48.730;8.006;2024-02-16T12:31:41;0.20;;;0.20;;
5521;SDS011;2783;48.730;8.006;2024-02-16T12:34:08;0.20;;;0.20;;
5521;SDS011;2783;48.730;8.006;2024-02-16T12:36:34;0.20;;;0.20;;
5521;SDS011;2783;48.730;8.006;2024-02-16T12:39:00;0.20;;;0.20;;
5521;SDS011;2783;48.730;8.006;2024-02-16T12:41:26;0.20;;;0.20;;
5521;SDS011;2783;48.730;8.006;2024-02-16T12:43:51;0.20;;;0.20;;
5521;SDS011;2783;48.730;8.006;2024-02-16T12:46:17;0.20;;;0.20;;
5521;SDS011;2783;48.730;8.006;2024-02-16T12:48:44;0.20;;;0.20;;
5521;SDS011;2783;48.730;8.006;2024-02-16T12:51:09;0.20;;;0.20;;
5521;SDS011;2783;48.730;8.006;2024-02-16T12:53:36;0.20;;;0.20;;
5521;SDS011;2783;48.730;8.006;2024-02-16T12:56:08;0.20;;;0.20;;
5521;SDS011;2783;48.730;8.006;2024-02-16T12:58:38;0.20;;;0.20;;
5521;SDS011;2783;48.730;8.006;2024-02-16T13:01:03;0.28;;;0.28;;
5521;SDS011;2783;48.730;8.006;2024-02-16T13:03:35;0.20;;;0.20;;
5521;SDS011;2783;48.730;8.006;2024-02-16T13:06:01;0.10;;;0.10;;
5521;SDS011;2783;48.730;8.006;2024-02-16T13:08:28;0.15;;;0.15;;
5521;SDS011;2783;48.730;8.006;2024-02-16T13:10:54;0.20;;;0.20;;
5521;SDS011;2783;48.730;8.006;2024-02-16T13:13:19;0.20;;;0.20;;
5521;SDS011;2783;48.730;8.006;2024-02-16T13:15:46;0.20;;;0.20;;
5521;SDS011;2783;48.730;8.006;2024-02-16T13:18:12;0.30;;;0.30;;
5521;SDS011;2783;48.730;8.006;2024-02-16T13:20:38;0.20;;;0.20;;
5521;SDS011;2783;48.730;8.006;2024-02-16T13:23:04;0.20;;;0.20;;
5521;SDS011;2783;48.730;8.006;2024-02-16T13:25:29;0.30;;;0.30;;
5521;SDS011;2783;48.730;8.006;2024-02-16T13:27:54;0.20;;;0.20;;
5521;SDS011;2783;48.730;8.006;2024-02-16T13:30:20;0.20;;;0.20;;
5521;SDS011;2783;48.730;8.006;2024-02-16T13:32:45;0.20;;;0.20;;
5521;SDS011;2783;48.730;8.006;2024-02-16T13:35:11;0.20;;;0.20;;
5521;SDS011;2783;48.730;8.006;2024-02-16T13:37:38;0.20;;;0.20;;
5521;SDS011;2783;48.730;8.006;2024-02-16T13:40:06;0.28;;;0.28;;
5521;SDS011;2783;48.730;8.006;2024-02-16T13:42:35;0.20;;;0.20;;
5521;SDS011;2783;48.730;8.006;2024-02-16T13:45:01;0.30;;;0.30;;
5521;SDS011;2783;48.730;8.006;2024-02-16T13:47:27;0.20;;;0.20;;
5521;SDS011;2783;48.730;8.006;2024-02-16T13:49:52;0.30;;;0.30;;
5521;SDS011;2783;48.730;8.006;2024-02-16T13:52:18;0.20;;;0.20;;
5521;SDS011;2783;48.730;8.006;2024-02-16T13:54:43;0.20;;;0.20;;
5521;SDS011;2783;48.730;8.006;2024-02-16T13:57:09;0.20;;;0.20;;
5521;SDS011;2783;48.730;8.006;2024-02-16T13:59:34;0.30;;;0.30;;
5521;SDS011;2783;48.730;8.006;2024-02-16T14:02:00;0.20;;;0.20;;
5521;SDS011;2783;48.730;8.006;2024-02-16T14:04:26;0.30;;;0.30;;
5521;SDS011;2783;48.730;8.006;2024-02-16T14:06:52;0.30;;;0.30;;
5521;SDS011;2783;48.730;8.006;2024-02-16T14:09:18;0.20;;;0.20;;
5521;SDS011;2783;48.730;8.006;2024-02-16T14:11:46;0.30;;;0.30;;
5521;SDS011;2783;48.730;8.006;2024-02-16T14:14:12;0.22;;;0.22;;
5521;SDS011;2783;48.730;8.006;2024-02-16T14:16:38;0.22;;;0.22;;
5521;SDS011;2783;48.730;8.006;2024-02-16T14:19:03;0.20;;;0.20;;
5521;SDS011;2783;48.730;8.006;2024-02-16T14:21:29;0.30;;;0.30;;
5521;SDS011;2783;48.730;8.006;2024-02-16T14:23:54;0.30;;;0.30;;
5521;SDS011;2783;48.730;8.006;2024-02-16T14:26:20;0.20;;;0.20;;
5521;SDS011;2783;48.730;8.006;2024-02-16T14:28:45;0.20;;;0.20;;
5521;SDS011;2783;48.730;8.006;2024-02-16T14:31:11;0.22;;;0.22;;
5521;SDS011;2783;48.730;8.006;2024-02-16T14:33:39;0.20;;;0.20;;
5521;SDS011;2783;48.730;8.006;2024-02-16T14:36:04;0.20;;;0.20;;
5521;SDS011;2783;48.730;8.006;2024-02-16T14:38:30;0.20;;;0.20;;
5521;SDS011;2783;48.730;8.006;2024-02-16T14:40:56;0.20;;;0.20;;
5521;SDS011;2783;48.730;8.006;2024-02-16T14:43:22;0.30;;;0.30;;
5521;SDS011;2783;48.730;8.006;2024-02-16T14:45:48;0.20;;;0.20;;
5521;SDS011;2783;48.730;8.006;2024-02-16T14:48:13;0.30;;;0.30;;
5521;SDS011;2783;48.730;8.006;2024-02-16T14:50:38;0.20;;;0.20;;
5521;SDS011;2783;48.730;8.006;2024-02-16T14:53:04;0.30;;;0.30;;
5521;SDS011;2783;48.730;8.006;2024-02-16T14:55:30;0.30;;;0.30;;
5521;SDS011;2783;48.730;8.006;2024-02-16T14:57:55;0.28;;;0.28;;
5521;SDS011;2783;48.730;8.006;2024-02-16T15:00:21;0.30;;;0.30;;
5521;SDS011;2783;48.730;8.006;2024-02-16T15:02:48;0.20;;;0.20;;
5521;SDS011;2783;48.730;8.006;2024-02-16T15:05:13;0.20;;;0.20;;
5521;SDS011;2783;48.730;8.006;2024-02-16T15:07:39;0.30;;;0.30;;
5521;SDS011;2783;48.730;8.006;2024-02-16T15:10:04;0.30;;;0.30;;
5521;SDS011;2783;48.730;8.006;2024-02-16T15:12:30;0.20;;;0.20;;